Hozan Maru — JJ4010 — position and weather

sailwx.info

Track history (hours):
 
Tides and Currents Weather Stations Pressure Air Temp Water Temp Dewpoint Dewpoint Depression Visibility Wind Speed Wind Dir Waves Ship Positions

Hozan Maru

Last reported at 2016-Jun-24 23:33 UTC. Time now 2016-Jun-24 23:57 UTC.
Position N 34°40' E 135°27'.

Length 38 m; draft 3.6 m.

Type: Tug. MMSI: 431401501.

Date/timePositionNaut miles runAvg speedWind from/ knotsBaromVisibWave heightAir tempDewpointWater temp
2016-Jun-24 23:33N 34°40' E 135°27'0 0.0
2016-Jun-24 22:33N 34°40' E 135°27'0 0.1
2016-Jun-24 21:33N 34°40' E 135°27'0 0.0
2016-Jun-24 20:34N 34°40' E 135°27'0 0.0
2016-Jun-24 19:33N 34°40' E 135°27'0 0.0
2016-Jun-24 18:34N 34°40' E 135°27'0 0.0
2016-Jun-24 17:34N 34°40' E 135°27'0 0.0
2016-Jun-24 16:34N 34°40' E 135°27'0 0.0
2016-Jun-24 15:34N 34°40' E 135°27'0 0.0
2016-Jun-24 14:34N 34°40' E 135°27'0 0.0
2016-Jun-24 13:33N 34°40' E 135°27'0 0.0
2016-Jun-24 12:33N 34°40' E 135°27'0 0.0
2016-Jun-24 11:33N 34°40' E 135°27'0 0.0
2016-Jun-24 10:33N 34°40' E 135°27'0 0.0
2016-Jun-24 09:32N 34°40' E 135°27'0 0.0
2016-Jun-24 08:34N 34°40' E 135°27'0 0.0
2016-Jun-24 07:21N 34°40' E 135°27'2 2.4
2016-Jun-24 06:33N 34°39' E 135°26'2 0.1
2016-Jun-23 08:26N 34°40' E 135°27'1011.1
2016-Jun-23 07:33N 34°38' E 135°15'23 2.2
2016-Jun-22 21:23N 34°40' E 134°48'6 0.3
2016-Jun-21 22:06N 34°37' E 134°55'712.5
2016-Jun-21 21:31N 34°37' E 135°03'1313.5
2016-Jun-21 20:33N 34°38' E 135°19'3 0.1
2016-Jun-21 00:33N 34°40' E 135°22'4 3.9
2016-Jun-20 23:33N 34°40' E 135°18'0 0.1
2016-Jun-20 22:33N 34°40' E 135°18'0 0.1
2016-Jun-20 21:33N 34°40' E 135°18'8 7.1
2016-Jun-20 20:28N 34°40' E 135°27'0 0.0
2016-Jun-20 00:33N 34°40' E 135°27'10 9.9
2016-Jun-19 23:33N 34°31' E 135°24'2 2.2
2016-Jun-19 22:33N 34°29' E 135°22'2 1.5
2016-Jun-19 21:28N 34°30' E 135°21'910.4
2016-Jun-19 20:33N 34°39' E 135°25'2 0.1
2016-Jun-19 04:11N 34°40' E 135°27'3 5.5
2016-Jun-19 03:33N 34°38' E 135°24'3 2.7
2016-Jun-19 02:33N 34°40' E 135°26'2 0.1
2016-Jun-18 06:32N 34°39' E 135°24'4 4.3
2016-Jun-18 05:33N 34°34' E 135°24'2 2.4
2016-Jun-18 04:33N 34°33' E 135°27'0 0.0
2016-Jun-18 03:33N 34°33' E 135°27'1 0.6
2016-Jun-18 02:32N 34°33' E 135°26'0 0.1
2016-Jun-18 01:33N 34°33' E 135°26'3 3.1
2016-Jun-18 00:33N 34°33' E 135°22'5 5.0
2016-Jun-17 23:33N 34°38' E 135°24'3 0.1
2016-Jun-16 00:32N 34°40' E 135°26'7 3.5
2016-Jun-15 22:33N 34°33' E 135°23'5 5.4
2016-Jun-15 21:33N 34°39' E 135°25'2 0.1
2016-Jun-15 02:13N 34°40' E 135°27'710.0
2016-Jun-15 01:33N 34°39' E 135°19'  
Track history (hours):
 
Tides and Currents Weather Stations Pressure Air Temp Water Temp Dewpoint Dewpoint Depression Visibility Wind Speed Wind Dir Waves Ship Positions

Hozan Maru

Last reported at 2016-Jun-24 23:33 UTC. Time now 2016-Jun-24 23:57 UTC.
Position N 34°40' E 135°27'.

Length 38 m; draft 3.6 m.

Type: Tug. MMSI: 431401501.

Date/timePositionNaut miles runAvg speedWind from/ knotsBaromVisibWave heightAir tempDewpointWater temp
2016-Jun-24 23:33N 34°40' E 135°27'0 0.0
2016-Jun-24 22:33N 34°40' E 135°27'0 0.1
2016-Jun-24 21:33N 34°40' E 135°27'0 0.0
2016-Jun-24 20:34N 34°40' E 135°27'0 0.0
2016-Jun-24 19:33N 34°40' E 135°27'0 0.0
2016-Jun-24 18:34N 34°40' E 135°27'0 0.0
2016-Jun-24 17:34N 34°40' E 135°27'0 0.0
2016-Jun-24 16:34N 34°40' E 135°27'0 0.0
2016-Jun-24 15:34N 34°40' E 135°27'0 0.0
2016-Jun-24 14:34N 34°40' E 135°27'0 0.0
2016-Jun-24 13:33N 34°40' E 135°27'0 0.0
2016-Jun-24 12:33N 34°40' E 135°27'0 0.0
2016-Jun-24 11:33N 34°40' E 135°27'0 0.0
2016-Jun-24 10:33N 34°40' E 135°27'0 0.0
2016-Jun-24 09:32N 34°40' E 135°27'0 0.0
2016-Jun-24 08:34N 34°40' E 135°27'0 0.0
2016-Jun-24 07:21N 34°40' E 135°27'2 2.4
2016-Jun-24 06:33N 34°39' E 135°26'2 0.1
2016-Jun-23 08:26N 34°40' E 135°27'1011.1
2016-Jun-23 07:33N 34°38' E 135°15'23 2.2
2016-Jun-22 21:23N 34°40' E 134°48'6 0.3
2016-Jun-21 22:06N 34°37' E 134°55'712.5
2016-Jun-21 21:31N 34°37' E 135°03'1313.5
2016-Jun-21 20:33N 34°38' E 135°19'3 0.1
2016-Jun-21 00:33N 34°40' E 135°22'4 3.9
2016-Jun-20 23:33N 34°40' E 135°18'0 0.1
2016-Jun-20 22:33N 34°40' E 135°18'0 0.1
2016-Jun-20 21:33N 34°40' E 135°18'8 7.1
2016-Jun-20 20:28N 34°40' E 135°27'0 0.0
2016-Jun-20 00:33N 34°40' E 135°27'10 9.9
2016-Jun-19 23:33N 34°31' E 135°24'2 2.2
2016-Jun-19 22:33N 34°29' E 135°22'2 1.5
2016-Jun-19 21:28N 34°30' E 135°21'910.4
2016-Jun-19 20:33N 34°39' E 135°25'2 0.1
2016-Jun-19 04:11N 34°40' E 135°27'3 5.5
2016-Jun-19 03:33N 34°38' E 135°24'3 2.7
2016-Jun-19 02:33N 34°40' E 135°26'2 0.1
2016-Jun-18 06:32N 34°39' E 135°24'4 4.3
2016-Jun-18 05:33N 34°34' E 135°24'2 2.4
2016-Jun-18 04:33N 34°33' E 135°27'0 0.0
2016-Jun-18 03:33N 34°33' E 135°27'1 0.6
2016-Jun-18 02:32N 34°33' E 135°26'0 0.1
2016-Jun-18 01:33N 34°33' E 135°26'3 3.1
2016-Jun-18 00:33N 34°33' E 135°22'5 5.0
2016-Jun-17 23:33N 34°38' E 135°24'3 0.1
2016-Jun-16 00:32N 34°40' E 135°26'7 3.5
2016-Jun-15 22:33N 34°33' E 135°23'5 5.4
2016-Jun-15 21:33N 34°39' E 135°25'2 0.1
2016-Jun-15 02:13N 34°40' E 135°27'710.0
2016-Jun-15 01:33N 34°39' E 135°19'  

Dump ship's entire track history